createdAt,value
2016-04-05T00:00:52.077Z,73.11
2016-04-05T00:01:52.094Z,73.3
2016-04-05T00:02:52.097Z,73.21
2016-04-05T00:03:52.132Z,73.39
2016-04-05T00:04:52.119Z,73.21
2016-04-05T00:05:52.121Z,73.11
2016-04-05T00:07:52.127Z,73.96
2016-04-05T00:08:52.333Z,74.16
2016-04-05T00:09:52.132Z,73.87
2016-04-05T00:10:52.135Z,73.96
2016-04-05T00:11:52.138Z,74.16
2016-04-05T00:12:52.156Z,74.25
2016-04-05T00:13:52.159Z,74.16
2016-04-05T00:14:52.364Z,74.35
2016-04-05T00:15:52.179Z,74.25
2016-04-05T00:16:52.198Z,74.25
2016-04-05T00:17:52.169Z,73.77
2016-04-05T00:18:52.173Z,73.77
2016-04-05T00:19:52.175Z,73.68
2016-04-05T00:20:52.600Z,73.68
2016-04-05T00:21:52.196Z,73.96
2016-04-05T00:22:52.417Z,73.68
2016-04-05T00:23:52.201Z,73.87
2016-04-05T00:24:52.203Z,73.87
2016-04-05T00:25:52.222Z,74.16
2016-04-05T00:26:52.225Z,73.87
2016-04-05T00:27:52.228Z,73.87
2016-04-05T00:28:52.215Z,73.87
2016-04-05T00:29:51.483Z,74.06
2016-04-05T00:30:52.252Z,74.06
2016-04-05T00:31:52.489Z,73.96
2016-04-05T00:32:52.273Z,74.06
2016-04-05T00:33:52.275Z,73.87
2016-04-05T00:34:52.263Z,73.87
2016-04-05T00:35:52.468Z,74.25
2016-04-05T00:36:52.502Z,74.16
2016-04-05T00:37:52.270Z,73.87
2016-04-05T00:38:52.288Z,73.68
2016-04-05T00:39:52.291Z,73.87
2016-04-05T00:40:52.544Z,73.87
2016-04-05T00:41:52.516Z,74.06
2016-04-05T00:42:52.737Z,73.96
2016-04-05T00:43:52.146Z,73.96
2016-04-05T00:44:52.320Z,73.77
2016-04-05T00:45:52.307Z,73.68
2016-04-05T00:46:52.310Z,74.06
2016-04-05T00:47:52.328Z,73.74
2016-04-05T00:48:52.331Z,73.93
2016-04-05T00:49:52.348Z,73.83
2016-04-05T00:50:52.367Z,74.02
2016-04-05T00:51:52.354Z,73.93
2016-04-05T00:52:52.341Z,74.31
2016-04-05T00:53:52.345Z,73.74
2016-04-05T00:54:52.550Z,74.31
2016-04-05T00:55:52.365Z,73.83
2016-04-05T00:56:52.384Z,74.31
2016-04-05T00:57:52.386Z,74.31
2016-04-05T00:58:52.405Z,73.83
2016-04-05T00:59:52.579Z,73.93
2016-04-05T01:01:06.472Z,73.83
2016-04-05T01:01:52.616Z,74.31
2016-04-05T01:02:51.931Z,74.12
2016-04-05T01:03:52.387Z,74.31
2016-04-05T01:04:52.406Z,74.4
2016-04-05T01:05:52.408Z,74.4
2016-04-05T01:07:52.429Z,74.02
2016-04-05T01:08:52.447Z,74.12
2016-04-05T01:09:52.419Z,74.21
2016-04-05T01:10:52.437Z,74.02
2016-04-05T01:11:52.690Z,74.4
2016-04-05T01:12:52.426Z,74.5
2016-04-05T01:13:52.445Z,74.69
2016-04-05T01:14:52.463Z,74.6
2016-04-05T01:15:52.465Z,74.5
2016-04-05T01:17:52.487Z,74.5
2016-04-05T01:18:52.459Z,75.26
2016-04-05T01:19:52.477Z,75.07
2016-04-05T01:20:52.479Z,74.6
2016-04-05T01:21:52.482Z,74.5
2016-04-05T01:22:52.437Z,74.4
2016-04-05T01:25:06.584Z,74.98
2016-04-05T01:25:52.492Z,74.98
2016-04-05T01:26:52.495Z,75.64
2016-04-05T01:27:52.733Z,75.45
2016-04-05T01:28:52.516Z,76.21
2016-04-05T01:29:52.535Z,75.16
2016-04-05T01:31:52.525Z,75.64
2016-04-05T01:32:52.528Z,74.98
2016-04-05T01:33:52.530Z,75.36
2016-04-05T01:34:52.533Z,75.42
2016-04-05T01:35:52.551Z,74.94
2016-04-05T01:36:52.554Z,75.32
2016-04-05T01:37:52.588Z,75.42
2016-04-05T01:38:52.746Z,75.04
2016-04-05T01:39:52.547Z,75.6
2016-04-05T01:40:52.549Z,75.23
2016-04-05T01:41:52.599Z,75.6
2016-04-05T01:42:52.571Z,75.6
2016-04-05T01:43:52.557Z,75.6
2016-04-05T01:44:52.857Z,75.79
2016-04-05T01:45:53.130Z,75.89
2016-04-05T01:46:52.827Z,75.89
2016-04-05T01:47:52.610Z,75.6
2016-04-05T01:48:55.407Z,75.51
2016-04-05T01:49:52.591Z,75.6
2016-04-05T01:50:52.609Z,75.99
2016-04-05T01:51:52.628Z,75.99
2016-04-05T01:52:52.615Z,75.99
2016-04-05T01:53:52.617Z,76.46
2016-04-05T01:54:52.605Z,76.37
2016-04-05T01:55:52.607Z,76.18
2016-04-05T01:56:52.626Z,76.56
2016-04-05T01:57:52.612Z,76.18
2016-04-05T01:58:52.662Z,76.46
2016-04-05T01:59:52.603Z,76.65
2016-04-05T02:00:52.887Z,76.23
2016-04-05T02:01:52.639Z,76.46
2016-04-05T02:02:52.642Z,76.14
2016-04-05T02:03:52.645Z,76.75
2016-04-05T02:04:52.648Z,76.46
2016-04-05T02:05:52.651Z,76.46
2016-04-05T02:06:52.669Z,76.84
2016-04-05T02:07:52.677Z,76.46
2016-04-05T02:08:52.664Z,76.61
2016-04-05T02:09:52.697Z,76.52
2016-04-05T02:10:52.669Z,76.65
2016-04-05T02:11:52.671Z,76.42
2016-04-05T02:12:52.690Z,76.42
2016-04-05T02:13:52.708Z,76.52
2016-04-05T02:14:52.570Z,76.71
2016-04-05T02:15:52.682Z,76.42
2016-04-05T02:16:52.700Z,76.42
2016-04-05T02:17:52.703Z,76.61
2016-04-05T02:18:52.690Z,76.42
2016-04-05T02:19:53.162Z,76.9
2016-04-05T02:20:52.915Z,76.81
2016-04-05T02:21:52.714Z,76.71
2016-04-05T02:22:52.717Z,77.09
2016-04-05T02:23:52.735Z,77.28
2016-04-05T02:24:52.753Z,76.9
2016-04-05T02:25:52.959Z,76.42
2016-04-05T02:26:52.727Z,76.81
2016-04-05T02:27:52.730Z,76.61
2016-04-05T02:28:52.748Z,76.81
2016-04-05T02:29:53.016Z,76.71
2016-04-05T02:30:52.754Z,76.71
2016-04-05T02:32:06.850Z,76.61
2016-04-05T02:32:52.759Z,76.42
2016-04-05T02:33:52.761Z,77.19
2016-04-05T02:34:52.764Z,77.09
2016-04-05T02:35:52.767Z,76.42
2016-04-05T02:36:52.770Z,76.61
2016-04-05T02:38:52.775Z,76.71
2016-04-05T02:39:52.777Z,76.9
2016-04-05T02:40:52.780Z,76.71
2016-04-05T02:41:52.783Z,77
2016-04-05T02:42:52.785Z,76.9
2016-04-05T02:43:52.789Z,77.28
2016-04-05T02:44:52.837Z,77.37
2016-04-05T02:45:52.780Z,77.47
2016-04-05T02:46:52.770Z,77.47
2016-04-05T02:47:52.760Z,77.37
2016-04-05T02:48:53.156Z,77.37
2016-04-05T02:49:52.943Z,77.47
2016-04-05T02:50:52.739Z,77.37
2016-04-05T02:51:52.753Z,76.61
2016-04-05T02:52:52.751Z,77.47
2016-04-05T02:53:52.764Z,77.28
2016-04-05T02:54:52.951Z,77.56
2016-04-05T02:55:52.952Z,76.81
2016-04-05T02:56:52.750Z,77.37
2016-04-05T02:57:52.751Z,77.85
2016-04-05T02:58:52.767Z,77.47
2016-04-05T02:59:52.847Z,77.66
2016-04-05T03:00:52.770Z,77.76
2016-04-05T03:01:52.757Z,77.76
2016-04-05T03:02:52.759Z,77.85
2016-04-05T03:03:52.823Z,78.23
2016-04-05T03:04:52.763Z,78.04
2016-04-05T03:05:52.797Z,78.42
2016-04-05T03:06:53.033Z,78.99
2016-04-05T03:07:52.802Z,78.99
2016-04-05T03:08:52.805Z,78.9
2016-04-05T03:09:52.777Z,79.09
2016-04-05T03:10:52.795Z,79.09
2016-04-05T03:11:52.797Z,79.24
2016-04-05T03:12:52.785Z,79.05
2016-04-05T03:13:52.835Z,78.86
2016-04-05T03:14:52.868Z,78.77
2016-04-05T03:15:52.808Z,78.48
2016-04-05T03:16:52.811Z,78.1
2016-04-05T03:17:52.813Z,78.38
2016-04-05T03:18:52.801Z,78
2016-04-05T03:19:52.803Z,77.91
2016-04-05T03:20:52.821Z,78.1
2016-04-05T03:21:52.840Z,78.19
2016-04-05T03:22:52.859Z,78.1
2016-04-05T03:23:53.267Z,77.91
2016-04-05T03:24:52.832Z,77.72
2016-04-05T03:25:52.867Z,77.91
2016-04-05T03:26:52.870Z,77.91
2016-04-05T03:27:53.075Z,78
2016-04-05T03:28:52.843Z,77.91
2016-04-05T03:29:52.909Z,78.1
2016-04-05T03:30:52.849Z,78.38
2016-04-05T03:32:07.149Z,78.1
2016-04-05T03:32:52.854Z,78.38
2016-04-05T03:33:52.857Z,77.81
2016-04-05T03:34:52.860Z,77.81
2016-04-05T03:35:52.860Z,78.19
2016-04-05T03:36:52.863Z,78.1
2016-04-05T03:37:52.880Z,77.91
2016-04-05T03:38:52.900Z,77.81
2016-04-05T03:39:52.871Z,77.72
2016-04-05T03:40:52.874Z,77.62
2016-04-05T03:41:52.876Z,77.34
2016-04-05T03:42:53.097Z,77.24
2016-04-05T03:43:52.882Z,77.15
2016-04-05T03:44:52.963Z,77.24
2016-04-05T03:45:52.887Z,77.34
2016-04-05T03:46:52.905Z,77.43
2016-04-05T03:47:52.924Z,77.62
2016-04-05T03:48:52.911Z,77.72
2016-04-05T03:49:52.896Z,77.24
2016-04-05T03:51:52.901Z,77.62
2016-04-05T03:52:53.106Z,76.96
2016-04-05T03:53:52.921Z,77.72
2016-04-05T03:54:52.909Z,77.62
2016-04-05T03:55:52.943Z,77.43
2016-04-05T03:56:53.118Z,77.34
2016-04-05T03:57:52.917Z,77.43
2016-04-05T03:58:52.920Z,77.43
2016-04-05T03:59:52.984Z,77.24
2016-04-05T04:00:52.925Z,77.15
2016-04-05T04:01:52.958Z,77.43
2016-04-05T04:02:52.930Z,77.24
2016-04-05T04:03:53.136Z,77.72
2016-04-05T04:04:53.138Z,77.62
2016-04-05T04:05:52.938Z,77.72
2016-04-05T04:06:52.956Z,77.72
2016-04-05T04:07:52.944Z,77.72
2016-04-05T04:08:55.980Z,77.62
2016-04-05T04:09:52.949Z,77.43
2016-04-05T04:10:52.952Z,77.81
2016-04-05T04:11:52.955Z,78.1
2016-04-05T04:12:52.958Z,78.19
2016-04-05T04:14:52.963Z,78.1
2016-04-05T04:15:52.965Z,78.57
2016-04-05T04:16:52.968Z,78.57
2016-04-05T04:17:52.986Z,78.19
2016-04-05T04:18:53.019Z,78.19
2016-04-05T04:20:07.072Z,78
2016-04-05T04:20:52.994Z,78.29
2016-04-05T04:21:52.996Z,78.57
2016-04-05T04:22:53.234Z,78.38
2016-04-05T04:23:53.032Z,78.57
2016-04-05T04:24:53.004Z,79.14
2016-04-05T04:25:53.023Z,79.33
2016-04-05T04:26:52.995Z,79.14
2016-04-05T04:27:53.013Z,78.96
2016-04-05T04:28:53.015Z,79.24
2016-04-05T04:29:53.003Z,79.24
2016-04-05T04:30:53.020Z,78.67
2016-04-05T04:31:53.008Z,78.38
2016-04-05T04:32:53.026Z,78.57
2016-04-05T04:33:53.014Z,78.48
2016-04-05T04:34:53.032Z,78.29
2016-04-05T04:35:53.222Z,78.67
2016-04-05T04:36:53.255Z,78.38
2016-04-05T04:37:53.259Z,78.57
2016-04-05T04:39:53.045Z,78.67
2016-04-05T04:40:53.251Z,78.57
2016-04-05T04:41:53.050Z,78.38
2016-04-05T04:43:07.541Z,78.57
2016-04-05T04:43:53.478Z,78.38
2016-04-05T04:44:53.308Z,78.67
2016-04-05T04:45:53.061Z,78.57
2016-04-05T04:46:53.080Z,78.48
2016-04-05T04:47:53.067Z,78.77
2016-04-05T04:48:53.069Z,78.48
2016-04-05T04:49:53.291Z,78.86
2016-04-05T04:50:53.074Z,78.67
2016-04-05T04:51:53.077Z,78.67
2016-04-05T04:52:53.283Z,78.67
2016-04-05T04:53:53.285Z,78.67
2016-04-05T04:54:53.117Z,78.23
2016-04-05T04:55:53.088Z,78
2016-04-05T04:56:53.090Z,78.67
2016-04-05T04:57:53.125Z,78.23
2016-04-05T04:58:53.502Z,77.85
2016-04-05T04:59:53.318Z,77.91
2016-04-05T05:00:53.101Z,78
2016-04-05T05:01:53.104Z,77.76
2016-04-05T05:02:53.123Z,77.85
2016-04-05T05:03:53.140Z,77.95
2016-04-05T05:04:53.347Z,78.23
2016-04-05T05:05:53.146Z,78.14
2016-04-05T05:06:53.367Z,78.14
2016-04-05T05:07:53.151Z,78.23
2016-04-05T05:08:53.139Z,77.76
2016-04-05T05:10:07.222Z,78.61
2016-04-05T05:10:53.159Z,78.23
2016-04-05T05:11:53.147Z,78.42
2016-04-05T05:12:53.165Z,78.33
2016-04-05T05:13:53.183Z,78.23
2016-04-05T05:14:53.155Z,77.95
2016-04-05T05:15:53.158Z,77.95
2016-04-05T05:16:53.161Z,77.85
2016-04-05T05:17:53.178Z,77.95
2016-04-05T05:18:53.165Z,78.33
2016-04-05T05:19:53.184Z,78.52
2016-04-05T05:20:53.186Z,78.33
2016-04-05T05:21:53.267Z,77.95
2016-04-05T05:22:53.192Z,77.95
2016-04-05T05:23:53.398Z,78.04
2016-04-05T05:24:53.197Z,77.95
2016-04-05T05:25:53.200Z,78.04
2016-04-05T05:26:53.406Z,77.95
2016-04-05T05:27:53.205Z,78.04
2016-04-05T05:28:53.193Z,78.52
2016-04-05T05:29:53.211Z,78.71
2016-04-05T05:30:53.213Z,78.61
2016-04-05T05:31:53.248Z,77.95
2016-04-05T05:32:53.625Z,77.95
2016-04-05T05:33:53.237Z,78.14
2016-04-05T05:35:53.242Z,78.23
2016-04-05T05:36:53.229Z,78.14
2016-04-05T05:37:53.264Z,78.04
2016-04-05T05:39:53.254Z,77.95
2016-04-05T05:40:53.256Z,77.95
2016-04-05T05:42:07.965Z,77.76
2016-04-05T05:42:53.262Z,77.28
2016-04-05T05:43:53.295Z,77.56
2016-04-05T05:44:53.267Z,77.76
2016-04-05T05:45:53.270Z,77.76
2016-04-05T05:46:53.272Z,77.76
2016-04-05T05:47:53.275Z,77.28
2016-04-05T05:48:53.511Z,77.56
2016-04-05T05:49:53.514Z,77.56
2016-04-05T05:50:53.298Z,77.28
2016-04-05T05:51:53.285Z,77.47
2016-04-05T05:52:53.304Z,77.56
2016-04-05T05:53:53.307Z,77.76
2016-04-05T05:54:53.466Z,77.95
2016-04-05T05:55:53.312Z,78.08
2016-04-05T05:56:53.315Z,77.95
2016-04-05T05:57:53.318Z,78.27
2016-04-05T05:58:53.523Z,77.89
2016-04-05T05:59:53.323Z,77.7
2016-04-05T06:00:53.623Z,77.98
2016-04-05T06:01:53.344Z,77.98
2016-04-05T06:02:53.753Z,77.51
2016-04-05T06:03:53.551Z,77.8
2016-04-05T06:04:53.352Z,77.89
2016-04-05T06:05:53.589Z,77.42
2016-04-05T06:06:53.356Z,77.89
2016-04-05T06:07:53.360Z,77.22
2016-04-05T06:08:53.503Z,77.13
2016-04-05T06:09:53.397Z,77.8
2016-04-05T06:10:53.587Z,77.89
2016-04-05T06:11:53.402Z,77.98
2016-04-05T06:12:53.389Z,77.98
2016-04-05T06:14:07.691Z,77.8
2016-04-05T06:14:53.394Z,77.98
2016-04-05T06:15:53.397Z,78.56
2016-04-05T06:16:53.400Z,77.98
2016-04-05T06:17:53.402Z,77.8
2016-04-05T06:19:07.502Z,77.8
2016-04-05T06:19:53.486Z,77.89
2016-04-05T06:20:53.426Z,77.93
2016-04-05T06:21:53.413Z,77.74
2016-04-05T06:22:53.619Z,78.03
2016-04-05T06:23:53.560Z,78.03
2016-04-05T06:24:53.641Z,78.22
2016-04-05T06:25:53.440Z,78.03
2016-04-05T06:26:53.442Z,78.03
2016-04-05T06:27:53.524Z,77.74
2016-04-05T06:28:53.448Z,77.07
2016-04-05T06:29:53.887Z,77.26
2016-04-05T06:30:53.469Z,77.36
2016-04-05T06:31:53.471Z,77.93
2016-04-05T06:32:53.474Z,78.22
2016-04-05T06:33:53.476Z,77.83
2016-04-05T06:34:53.885Z,77.55
2016-04-05T06:35:53.482Z,77.55
2016-04-05T06:36:53.500Z,77.45
2016-04-05T06:37:53.503Z,77.55
2016-04-05T06:38:53.506Z,77.26
2016-04-05T06:39:53.509Z,77.07
2016-04-05T06:40:53.526Z,76.88
2016-04-05T06:41:53.514Z,76.98
2016-04-05T06:42:53.517Z,77.17
2016-04-05T06:43:53.550Z,77.3
2016-04-05T06:44:53.553Z,77.01
2016-04-05T06:45:53.962Z,76.92
2016-04-05T06:46:53.575Z,77.11
2016-04-05T06:47:53.561Z,77.11
2016-04-05T06:48:53.782Z,77.11
2016-04-05T06:49:53.567Z,76.35
2016-04-05T06:50:53.569Z,76.25
2016-04-05T06:51:53.572Z,76.35
2016-04-05T06:52:54.028Z,76.64
2016-04-05T06:53:53.983Z,76.16
2016-04-05T06:54:53.627Z,76.57
2016-04-05T06:55:53.896Z,75.87
2016-04-05T06:56:53.835Z,76.01
2016-04-05T06:58:53.716Z,75.91
2016-04-05T07:00:07.721Z,75.72
2016-04-05T07:00:53.643Z,76.1
2016-04-05T07:01:53.708Z,75.62
2016-04-05T07:02:53.757Z,75.62
2016-04-05T07:03:53.979Z,75.91
2016-04-05T07:04:53.763Z,75.72
2016-04-05T07:05:53.734Z,75.24
2016-04-05T07:06:53.425Z,75.24
2016-04-05T07:07:53.304Z,75.05
2016-04-05T07:09:53.809Z,76.04
2016-04-05T07:10:53.922Z,76.04
2016-04-05T07:11:53.783Z,75.85
2016-04-05T07:12:54.114Z,75.85
2016-04-05T07:13:54.211Z,76.52
2016-04-05T07:14:54.323Z,75.85
2016-04-05T07:16:53.797Z,75.95
2016-04-05T07:17:53.753Z,76.42
2016-04-05T07:18:53.881Z,76.62
2016-04-05T07:19:54.196Z,76.52
2016-04-05T07:20:53.980Z,75.98
2016-04-05T07:21:53.936Z,77.23
2016-04-05T07:22:53.844Z,77.03
2016-04-05T07:23:53.332Z,77.32
2016-04-05T07:24:53.819Z,76.75
2016-04-05T07:25:53.821Z,77.32
2016-04-05T07:26:53.824Z,76.65
2016-04-05T07:28:53.814Z,76.21
2016-04-05T07:29:54.223Z,75.54
2016-04-05T07:30:53.365Z,76.03
2016-04-05T07:31:54.010Z,75.93
2016-04-05T07:32:53.996Z,74.69
2016-04-05T07:33:53.405Z,74.98
2016-04-05T07:34:53.908Z,74.69
2016-04-05T07:35:54.020Z,74.69
2016-04-05T07:36:54.179Z,74.78
2016-04-05T07:38:07.982Z,74.78
2016-04-05T07:38:54.170Z,74.49
2016-04-05T07:40:08.002Z,74.24
2016-04-05T07:40:53.939Z,74.24
2016-04-05T07:41:53.927Z,74.91
2016-04-05T07:42:53.977Z,75.01
2016-04-05T07:43:54.183Z,74.63
2016-04-05T07:44:54.169Z,74.53
2016-04-05T07:45:53.953Z,72.91
2016-04-05T07:46:53.972Z,71.67
2016-04-05T07:47:53.974Z,72.62
2016-04-05T07:48:54.008Z,71.76
2016-04-05T07:49:54.402Z,71.99
2016-04-05T07:50:53.999Z,72.37
2016-04-05T07:51:54.001Z,71.42
2016-04-05T07:52:54.004Z,71.8
2016-04-05T07:53:54.022Z,71.57
2016-04-05T07:54:54.024Z,71.89
2016-04-05T07:55:54.027Z,71.03
2016-04-05T07:57:54.048Z,71.7
2016-04-05T08:00:54.071Z,71.51
2016-04-05T08:01:54.106Z,71.89
2016-04-05T08:02:54.108Z,71.89
2016-04-05T08:03:54.112Z,71.61
2016-04-05T08:04:54.114Z,71.13
2016-04-05T08:05:54.335Z,71.51
2016-04-05T08:06:54.323Z,71.32
2016-04-05T08:07:54.559Z,71.8
2016-04-05T08:08:54.547Z,71.42
2016-04-05T08:09:54.159Z,71.32
2016-04-05T08:10:54.161Z,71.42
2016-04-05T08:11:54.164Z,71.03
2016-04-05T08:12:54.182Z,71.22
2016-04-05T08:13:54.201Z,70.75
2016-04-05T08:14:54.219Z,70.11
2016-04-05T08:15:54.206Z,70.01
2016-04-05T08:16:54.208Z,70.78
2016-04-05T08:17:54.414Z,70.5
2016-04-05T08:18:54.230Z,70.21
2016-04-05T08:19:54.232Z,70.3
2016-04-05T08:20:54.251Z,69.73
2016-04-05T08:21:54.269Z,70.4
2016-04-05T08:22:54.255Z,69.73
2016-04-05T08:23:54.274Z,69.82
2016-04-05T08:24:54.276Z,68.87
2016-04-05T08:25:54.296Z,69.06
2016-04-05T08:26:54.298Z,69.25
2016-04-05T08:27:54.301Z,69.82
2016-04-05T08:28:54.319Z,69.82
2016-04-05T08:29:54.321Z,69.64
2016-04-05T08:30:54.340Z,69.44
2016-04-05T08:31:54.327Z,69
2016-04-05T08:32:54.345Z,69.09
2016-04-05T08:33:54.364Z,68.9
2016-04-05T08:34:54.367Z,69
2016-04-05T08:35:54.385Z,69.09
2016-04-05T08:36:54.372Z,69.29
2016-04-05T08:37:54.406Z,68.8
2016-04-05T08:38:54.408Z,68.62
2016-04-05T08:39:54.411Z,68.9
2016-04-05T08:40:54.648Z,68.23
2016-04-05T08:42:54.451Z,68.23
2016-04-05T08:44:54.471Z,68.46
2016-04-05T08:45:54.552Z,68.17
2016-04-05T08:46:54.477Z,68.17
2016-04-05T08:47:54.511Z,67.79
2016-04-05T08:48:54.497Z,67.6
2016-04-05T08:49:54.704Z,67.5
2016-04-05T08:50:54.519Z,67.6
2016-04-05T08:51:54.568Z,67.11
2016-04-05T08:52:54.774Z,66.83
2016-04-05T08:53:54.542Z,66.74
2016-04-05T08:54:54.592Z,66.74
2016-04-05T08:55:54.563Z,66.83
2016-04-05T08:56:54.566Z,66.54
2016-04-05T08:57:54.585Z,67.6
2016-04-05T08:58:54.587Z,67.34
2016-04-05T08:59:54.621Z,68.21
2016-04-05T09:00:54.624Z,66.19
2016-04-05T09:01:54.626Z,65.62
2016-04-05T09:02:54.645Z,66.48
2016-04-05T09:03:54.648Z,66
2016-04-05T09:04:54.838Z,65.91
2016-04-05T09:05:54.653Z,65.91
2016-04-05T09:06:54.671Z,66.48
2016-04-05T09:07:54.876Z,66.29
2016-04-05T09:08:54.895Z,66.48
2016-04-05T09:09:54.544Z,66.48
2016-04-05T09:10:54.717Z,66.42
2016-04-05T09:12:08.817Z,66.19
2016-04-05T09:12:54.927Z,66.8
2016-04-05T09:13:54.742Z,66.71
2016-04-05T09:14:54.744Z,66.32
2016-04-05T09:15:54.794Z,65.94
2016-04-05T09:16:55.172Z,64.5
2016-04-05T09:17:54.768Z,64.89
2016-04-05T09:19:55.008Z,64.79
2016-04-05T09:20:54.808Z,65.08
2016-04-05T09:21:54.841Z,64.79
2016-04-05T09:22:54.829Z,64.79
2016-04-05T09:23:54.847Z,65.78
2016-04-05T09:24:54.849Z,65.78
2016-04-05T09:25:54.868Z,65.01
2016-04-05T09:26:54.917Z,65.11
2016-04-05T09:27:54.874Z,64.92
2016-04-05T09:28:55.095Z,64.63
2016-04-05T09:29:54.926Z,64.34
2016-04-05T09:30:54.756Z,64.63
2016-04-05T09:31:54.931Z,64.66
2016-04-05T09:32:54.949Z,63.32
2016-04-05T09:33:54.998Z,62.65
2016-04-05T09:34:54.954Z,62.74
2016-04-05T09:35:54.989Z,63.42
2016-04-05T09:36:54.976Z,62.84
2016-04-05T09:37:54.995Z,61.88
2016-04-05T09:38:54.997Z,62.26
2016-04-05T09:39:55.421Z,61.49
2016-04-05T09:40:55.064Z,61.78
2016-04-05T09:41:55.036Z,62.01
2016-04-05T09:42:55.053Z,62.48
2016-04-05T09:43:55.057Z,62.48
2016-04-05T09:44:55.075Z,61.24
2016-04-05T09:45:55.483Z,60.66
2016-04-05T09:46:55.096Z,60.47
2016-04-05T09:47:55.130Z,61.14
2016-04-05T09:48:55.116Z,60.66
2016-04-05T09:49:55.135Z,59.89
2016-04-05T09:50:55.155Z,60.38
2016-04-05T09:51:55.157Z,59.41
2016-04-05T09:52:55.159Z,59.54
2016-04-05T09:53:55.178Z,59.83
2016-04-05T09:54:55.430Z,60.31
2016-04-05T09:55:55.402Z,59.83
2016-04-05T09:56:55.201Z,59.73
2016-04-05T09:57:55.219Z,60.21
2016-04-05T09:58:55.238Z,60.31
2016-04-05T09:59:55.256Z,61.84
2016-04-05T10:00:55.321Z,61.78
2016-04-05T10:01:55.261Z,60.91
2016-04-05T10:03:09.376Z,59.47
2016-04-05T10:03:55.501Z,56.01
2016-04-05T10:04:55.301Z,56.78
2016-04-05T10:05:55.319Z,57.65
2016-04-05T10:06:55.337Z,56.98
2016-04-05T10:07:55.339Z,56.49
2016-04-05T10:08:55.358Z,56.98
2016-04-05T10:09:55.361Z,56.59
2016-04-05T10:10:55.378Z,56.98
2016-04-05T10:11:55.413Z,56.78
2016-04-05T10:12:55.400Z,56.59
2016-04-05T10:13:55.419Z,56.52
2016-04-05T10:15:09.737Z,57.97
2016-04-05T10:15:55.503Z,57.77
2016-04-05T10:16:55.192Z,59.12
2016-04-05T10:17:55.461Z,57
2016-04-05T10:18:55.495Z,56.81
2016-04-05T10:19:55.497Z,55.18
2016-04-05T10:20:55.500Z,55.94
2016-04-05T10:22:09.615Z,56.91
2016-04-05T10:23:55.539Z,55.56
2016-04-05T10:24:55.557Z,55.37
2016-04-05T10:25:55.092Z,54.5
2016-04-05T10:26:55.579Z,53.92
2016-04-05T10:27:55.613Z,53.45
2016-04-05T10:28:55.616Z,52.61
2016-04-05T10:29:55.634Z,52.58
2016-04-05T10:30:55.621Z,53.09
2016-04-05T10:31:55.639Z,52.8
2016-04-05T10:32:55.767Z,53.47
2016-04-05T10:33:55.660Z,55.4
2016-04-05T10:34:55.679Z,54.53
2016-04-05T10:35:55.712Z,55.98
2016-04-05T10:36:55.746Z,55.11
2016-04-05T10:37:55.733Z,54.05
2016-04-05T10:38:55.736Z,51.93
2016-04-05T10:39:56.145Z,51.26
2016-04-05T10:40:55.788Z,52.89
2016-04-05T10:41:55.791Z,53.57
2016-04-05T10:42:55.809Z,53.98
2016-04-05T10:43:55.811Z,53.31
2016-04-05T10:44:55.815Z,51.09
2016-04-05T10:45:55.833Z,52.06
2016-04-05T10:46:55.836Z,52.34
2016-04-05T10:47:55.853Z,51.76
2016-04-05T10:48:55.888Z,52.83
2016-04-05T10:49:55.875Z,55.13
2016-04-05T10:50:55.940Z,50.13
2016-04-05T10:51:55.911Z,50.61
2016-04-05T10:52:56.149Z,51.09
2016-04-05T10:53:55.948Z,51.98
2016-04-05T10:54:55.966Z,51.41
2016-04-05T10:55:56.156Z,51.57
2016-04-05T10:56:55.988Z,52.85
2016-04-05T10:57:56.068Z,52.85
2016-04-05T10:58:56.008Z,51.6
2016-04-05T10:59:56.011Z,50.35
2016-04-05T11:00:56.030Z,51.89
2016-04-05T11:01:56.048Z,51.7
2016-04-05T11:02:56.066Z,51.7
2016-04-05T11:03:56.100Z,52.08
2016-04-05T11:05:56.293Z,51.72
2016-04-05T11:06:56.187Z,49.6
2016-04-05T11:07:56.176Z,48.83
2016-04-05T11:08:56.142Z,49.79
2016-04-05T11:09:56.365Z,50.85
2016-04-05T11:10:56.164Z,51.24
2016-04-05T11:11:56.182Z,52.97
2016-04-05T11:12:56.215Z,49.02
2016-04-05T11:13:56.218Z,51.34
2016-04-05T11:14:56.237Z,52.11
2016-04-05T11:15:56.240Z,51.36
2016-04-05T11:16:56.493Z,50.78
2016-04-05T11:17:56.464Z,50.78
2016-04-05T11:18:56.279Z,51.94
2016-04-05T11:19:56.298Z,51.75
2016-04-05T11:20:56.347Z,51.26
2016-04-05T11:21:56.350Z,49.34
2016-04-05T11:22:56.337Z,48.18
2016-04-05T11:23:56.356Z,50.69
2016-04-05T11:24:56.373Z,49.43
2016-04-05T11:25:56.579Z,50.88
2016-04-05T11:26:56.628Z,50.78
2016-04-05T11:27:56.413Z,52.06
2016-04-05T11:28:56.634Z,52.06
2016-04-05T11:29:56.434Z,51.77
2016-04-05T11:30:56.546Z,49.17
2016-04-05T11:31:56.471Z,51.68
2016-04-05T11:32:56.692Z,47.92
2016-04-05T11:33:56.538Z,49.94
2016-04-05T11:34:56.541Z,48.42
2016-04-05T11:35:56.560Z,47.92
2016-04-05T11:36:56.562Z,48.71
2016-04-05T11:37:56.580Z,47.65
2016-04-05T11:38:56.989Z,48.81
2016-04-05T11:39:56.585Z,48.81
2016-04-05T11:40:56.604Z,49.39
2016-04-05T11:41:56.622Z,46.88
2016-04-05T11:42:56.640Z,46.49
2016-04-05T11:43:56.658Z,47.87
2016-04-05T11:44:56.692Z,49.12
2016-04-05T11:45:56.679Z,49.32
2016-04-05T11:46:56.806Z,49.12
2016-04-05T11:48:56.734Z,48.06
2016-04-05T11:49:56.784Z,48.06
2016-04-05T11:50:56.974Z,45.17
2016-04-05T11:51:56.803Z,45.55
2016-04-05T11:52:56.798Z,47.38
2016-04-05T11:53:56.791Z,47.31
2016-04-05T11:55:57.029Z,46.54
2016-04-05T11:56:57.055Z,47.41
2016-04-05T11:57:56.821Z,46.54
2016-04-05T11:58:56.835Z,46.34
2016-04-05T12:00:10.945Z,45.57
2016-04-05T12:00:56.882Z,45.28
2016-04-05T12:01:56.881Z,44.82
2016-04-05T12:03:10.995Z,45.5
2016-04-05T12:03:57.151Z,45.5
2016-04-05T12:04:56.980Z,43.37
2016-04-05T12:06:01.622Z,44.24
2016-04-05T12:07:01.781Z,44.92
2016-04-05T12:07:56.970Z,45.01
2016-04-05T12:08:56.988Z,44.73
2016-04-05T12:09:57.006Z,44.92
2016-04-05T12:11:00.773Z,45.72
2016-04-05T12:11:56.292Z,43.76
2016-04-05T12:12:57.060Z,43.68
2016-04-05T12:13:57.078Z,43.3
2016-04-05T12:14:57.081Z,43.2
2016-04-05T12:15:57.115Z,43.4
2016-04-05T12:16:57.336Z,41.85
2016-04-05T12:17:57.136Z,41.46
2016-04-05T12:18:57.170Z,41.56
2016-04-05T12:19:57.189Z,41.08
2016-04-05T12:20:57.222Z,41.66
2016-04-05T12:21:57.209Z,42.25
2016-04-05T12:22:57.227Z,41.56
2016-04-05T12:23:57.261Z,41.67
2016-04-05T12:24:57.264Z,40.42
2016-04-05T12:25:57.299Z,40.9
2016-04-05T12:26:57.301Z,41.09
2016-04-05T12:27:57.319Z,41.19
2016-04-05T12:29:11.435Z,39.36
2016-04-05T12:29:57.341Z,40.05
2016-04-05T12:30:57.358Z,39.67
2016-04-05T12:31:57.580Z,40.34
2016-04-05T12:32:57.410Z,39.95
2016-04-05T12:33:57.413Z,40.05
2016-04-05T12:34:57.447Z,40.44
2016-04-05T12:35:57.450Z,40.34
2016-04-05T12:36:57.484Z,40.44
2016-04-05T12:37:57.487Z,40.44
2016-04-05T12:38:57.709Z,39.2
2016-04-05T12:39:57.524Z,38.31
2016-04-05T12:40:57.557Z,38.91
2016-04-05T12:41:57.559Z,38.23
2016-04-05T12:42:57.578Z,37.17
2016-04-05T12:43:57.597Z,38.31
2016-04-05T12:44:57.615Z,36.88
2016-04-05T12:45:57.837Z,35.42
2016-04-05T12:46:57.651Z,35.33
2016-04-05T12:47:57.700Z,33.78
2016-04-05T12:48:57.704Z,34.55
2016-04-05T12:49:57.707Z,35.81
2016-04-05T12:50:58.084Z,36.78
2016-04-05T12:51:57.947Z,37.65
2016-04-05T12:52:57.762Z,37.36
2016-04-05T12:53:57.795Z,36.78
2016-04-05T12:54:57.798Z,35.91
2016-04-05T12:55:57.816Z,35.13
2016-04-05T12:56:57.882Z,37.26
2016-04-05T12:57:57.852Z,37.36
2016-04-05T12:58:57.872Z,37.75
2016-04-05T12:59:57.936Z,36.68
2016-04-05T13:00:58.329Z,35.25
2016-04-05T13:01:58.457Z,35.83
2016-04-05T13:02:57.944Z,36.22
2016-04-05T13:03:57.978Z,37.38
2016-04-05T13:04:57.981Z,36.9
2016-04-05T13:05:58.015Z,34.19
2016-04-05T13:06:58.408Z,32.82
2016-04-05T13:07:58.067Z,32.73
2016-04-05T13:08:58.430Z,33.99
2016-04-05T13:09:58.260Z,34.38
2016-04-05T13:10:58.123Z,31.67
2016-04-05T13:11:58.328Z,30.99
2016-04-05T13:12:58.128Z,33.02
2016-04-05T13:13:58.209Z,31.37
2016-04-05T13:14:58.446Z,30.69
2016-04-05T13:16:01.214Z,28.86
2016-04-05T13:16:58.481Z,29.44
2016-04-05T13:17:58.282Z,31.28
2016-04-05T13:18:58.237Z,31.09
2016-04-05T13:19:58.459Z,31.76
2016-04-05T13:20:58.274Z,33.41